createdAt,value
2023-01-11T00:03:02.997Z,9.45
2023-01-11T00:06:05.016Z,1.50
2023-01-11T00:09:07.043Z,0.60
2023-01-11T00:12:09.158Z,1.00
2023-01-11T00:15:11.606Z,1.15
2023-01-11T00:18:13.585Z,0.85
2023-01-11T00:21:17.908Z,0.40
2023-01-11T00:24:19.824Z,0.80
2023-01-11T00:27:21.760Z,0.80
2023-01-11T00:30:23.691Z,0.60
2023-01-11T00:33:25.699Z,0.75
2023-01-11T00:36:27.754Z,0.60
2023-01-11T00:39:29.636Z,0.60
2023-01-11T00:42:31.621Z,0.88
2023-01-11T00:45:33.594Z,0.70
2023-01-11T00:48:35.498Z,0.70
2023-01-11T00:51:37.387Z,0.70
2023-01-11T00:54:41.084Z,0.65
2023-01-11T00:57:43.029Z,0.50
2023-01-11T01:00:45.136Z,0.55
2023-01-11T01:03:47.041Z,0.55
2023-01-11T01:06:49.011Z,0.52
2023-01-11T01:09:50.991Z,0.52
2023-01-11T01:12:52.896Z,0.70
2023-01-11T01:15:58.130Z,0.50
2023-01-11T01:19:00.458Z,0.65
2023-01-11T01:22:02.848Z,0.50
2023-01-11T01:25:05.326Z,0.60
2023-01-11T01:28:07.218Z,0.95
2023-01-11T01:31:09.164Z,0.68
2023-01-11T01:34:11.636Z,0.70
2023-01-11T01:37:13.609Z,0.60
2023-01-11T01:40:15.604Z,0.70
2023-01-11T01:43:18.243Z,0.43
2023-01-11T01:49:23.241Z,0.30
2023-01-11T01:52:26.790Z,0.40
2023-01-11T01:55:33.052Z,0.95
2023-01-11T01:58:40.353Z,0.50
2023-01-11T02:01:42.458Z,0.90
2023-01-11T02:04:46.625Z,0.60
2023-01-11T02:07:48.685Z,0.60
2023-01-11T02:10:53.686Z,0.40
2023-01-11T02:14:00.999Z,0.73
2023-01-11T02:17:03.013Z,0.70
2023-01-11T02:20:34.555Z,0.38
2023-01-11T02:24:18.803Z,0.50
2023-01-11T02:27:48.835Z,0.73
2023-01-11T02:31:02.247Z,0.70
2023-01-11T02:34:16.458Z,0.55
2023-01-11T02:37:41.881Z,0.50
2023-01-11T02:40:54.532Z,0.85
2023-01-11T02:44:00.320Z,0.55
2023-01-11T02:47:07.322Z,0.52
2023-01-11T02:50:24.021Z,0.70
2023-01-11T02:53:39.912Z,0.50
2023-01-11T02:56:46.303Z,0.57
2023-01-11T02:59:50.121Z,0.63
2023-01-11T03:03:17.535Z,0.40
2023-01-11T03:06:39.755Z,0.43
2023-01-11T03:10:17.166Z,0.63
2023-01-11T03:13:53.668Z,0.50
2023-01-11T03:17:10.649Z,0.55
2023-01-11T03:20:25.448Z,0.70
2023-01-11T03:23:51.179Z,0.40
2023-01-11T03:27:12.233Z,0.30
2023-01-11T03:30:39.072Z,0.50
2023-01-11T03:33:52.725Z,0.40
2023-01-11T03:36:56.739Z,0.52
2023-01-11T03:40:09.602Z,0.55
2023-01-11T03:43:16.442Z,0.50
2023-01-11T03:46:24.029Z,0.50
2023-01-11T03:49:38.579Z,0.38
2023-01-11T03:52:43.229Z,0.50
2023-01-11T03:55:47.922Z,0.43
2023-01-11T03:58:49.972Z,0.55
2023-01-11T04:01:54.445Z,0.50
2023-01-11T04:04:56.457Z,0.98
2023-01-11T04:07:58.393Z,0.77
2023-01-11T04:11:00.260Z,0.60
2023-01-11T04:14:02.147Z,0.50
2023-01-11T04:17:05.256Z,0.77
2023-01-11T04:20:08.701Z,0.50
2023-01-11T04:23:10.608Z,0.50
2023-01-11T04:26:12.921Z,0.40
2023-01-11T04:29:14.788Z,0.70
2023-01-11T04:32:16.652Z,0.60
2023-01-11T04:35:18.811Z,0.63
2023-01-11T04:38:20.678Z,0.70
2023-01-11T04:41:23.702Z,0.60
2023-01-11T04:44:25.728Z,0.40
2023-01-11T04:47:27.764Z,0.50
2023-01-11T04:50:29.697Z,0.70
2023-01-11T04:53:31.791Z,0.40
2023-01-11T04:56:34.115Z,0.50
2023-01-11T04:59:35.979Z,0.50
2023-01-11T05:02:38.792Z,0.47
2023-01-11T05:05:40.624Z,0.63
2023-01-11T05:08:47.086Z,0.50
2023-01-11T05:11:48.960Z,0.40
2023-01-11T05:14:51.149Z,0.47
2023-01-11T05:17:53.173Z,0.40
2023-01-11T05:20:57.276Z,0.40
2023-01-11T05:24:01.038Z,0.50
2023-01-11T05:27:02.956Z,0.70
2023-01-11T05:30:05.200Z,0.30
2023-01-11T05:33:07.105Z,0.40
2023-01-11T05:36:18.245Z,0.20
2023-01-11T05:39:20.147Z,0.40
2023-01-11T05:42:22.411Z,0.40
2023-01-11T05:45:24.294Z,0.30
2023-01-11T05:48:26.409Z,0.30
2023-01-11T05:51:29.595Z,0.50
2023-01-11T05:54:31.602Z,0.28
2023-01-11T05:57:35.971Z,0.35
2023-01-11T06:00:37.890Z,0.30
2023-01-11T06:03:39.754Z,0.32
2023-01-11T06:06:41.805Z,0.50
2023-01-11T06:09:43.628Z,0.30
2023-01-11T06:12:48.714Z,0.20
2023-01-11T06:15:50.620Z,0.40
2023-01-11T06:18:53.724Z,0.30
2023-01-11T06:21:55.611Z,0.40
2023-01-11T06:24:57.423Z,0.38
2023-01-11T06:27:59.818Z,0.30
2023-01-11T06:31:01.925Z,0.43
2023-01-11T06:34:03.898Z,0.38
2023-01-11T06:37:05.764Z,0.30
2023-01-11T06:40:08.180Z,0.32
2023-01-11T06:43:10.420Z,0.40
2023-01-11T06:46:13.880Z,0.30
2023-01-11T06:49:15.738Z,0.32
2023-01-11T06:52:17.619Z,0.43
2023-01-11T06:55:19.699Z,0.30
2023-01-11T06:58:23.533Z,0.35
2023-01-11T07:01:25.633Z,0.30
2023-01-11T07:04:27.567Z,0.30
2023-01-11T07:07:29.599Z,0.22
2023-01-11T07:10:31.512Z,0.40
2023-01-11T07:13:33.472Z,0.30
2023-01-11T07:16:35.373Z,0.30
2023-01-11T07:19:37.328Z,0.30
2023-01-11T07:22:39.138Z,0.35
2023-01-11T07:25:41.101Z,0.40
2023-01-11T07:28:43.739Z,0.30
2023-01-11T07:34:48.169Z,0.22
2023-01-11T07:37:50.015Z,0.30
2023-01-11T07:40:51.953Z,0.30
2023-01-11T07:43:53.858Z,0.30
2023-01-11T07:46:55.815Z,0.60
2023-01-11T07:49:57.768Z,0.40
2023-01-11T07:52:59.587Z,0.50
2023-01-11T07:56:01.551Z,0.80
2023-01-11T07:59:03.426Z,1.23
2023-01-11T08:02:05.247Z,1.17
2023-01-11T08:05:07.680Z,0.68
2023-01-11T08:11:11.897Z,0.60
2023-01-11T08:14:16.033Z,0.40
2023-01-11T08:17:17.933Z,0.40
2023-01-11T08:20:19.883Z,0.35
2023-01-11T08:23:21.865Z,0.60
2023-01-11T08:26:24.997Z,0.43
2023-01-11T08:29:27.198Z,0.45
2023-01-11T08:32:29.372Z,0.40
2023-01-11T08:35:32.465Z,0.40
2023-01-11T08:38:34.598Z,0.40
2023-01-11T08:41:36.478Z,0.60
2023-01-11T08:44:38.309Z,0.65
2023-01-11T08:47:42.667Z,0.60
2023-01-11T08:50:44.556Z,0.52
2023-01-11T08:53:46.373Z,0.47
2023-01-11T08:56:50.517Z,0.63
2023-01-11T08:59:52.376Z,1.05
2023-01-11T09:02:54.402Z,1.27
2023-01-11T09:05:56.663Z,1.40
2023-01-11T09:08:58.564Z,0.50
2023-01-11T09:12:00.466Z,0.45
2023-01-11T09:15:02.585Z,0.55
2023-01-11T09:18:04.616Z,0.90
2023-01-11T09:21:06.482Z,0.60
2023-01-11T09:24:08.663Z,0.40
2023-01-11T09:27:10.737Z,0.60
2023-01-11T09:30:14.842Z,0.45
2023-01-11T09:33:16.664Z,0.50
2023-01-11T09:36:18.532Z,0.20
2023-01-11T09:39:20.512Z,0.30
2023-01-11T09:42:27.940Z,0.30
2023-01-11T09:45:30.939Z,0.25
2023-01-11T09:51:39.809Z,0.32
2023-01-11T09:54:41.747Z,0.50
2023-01-11T09:57:57.047Z,0.40
2023-01-11T10:01:36.300Z,0.50
2023-01-11T10:04:59.833Z,0.38
2023-01-11T10:22:39.139Z,0.50
2023-01-11T10:25:44.845Z,0.70
2023-01-11T10:29:01.512Z,0.50
2023-01-11T10:32:03.653Z,0.68
2023-01-11T10:35:31.280Z,0.50
2023-01-11T10:38:37.964Z,0.75
2023-01-11T10:41:48.253Z,0.98
2023-01-11T10:45:18.255Z,0.90
2023-01-11T10:48:37.085Z,0.70
2023-01-11T10:51:45.928Z,0.70
2023-01-11T10:54:48.648Z,0.50
2023-01-11T10:58:14.376Z,0.65
2023-01-11T11:01:28.428Z,0.63
2023-01-11T11:04:36.395Z,0.70
2023-01-11T11:08:07.085Z,0.63
2023-01-11T11:11:13.671Z,0.88
2023-01-11T11:14:27.909Z,0.95
2023-01-11T11:17:39.095Z,1.00
2023-01-11T11:20:41.341Z,0.90
2023-01-11T11:23:43.630Z,0.93
2023-01-11T11:26:51.698Z,0.80
2023-01-11T11:29:55.962Z,0.90
2023-01-11T11:33:01.319Z,0.80
2023-01-11T11:36:09.285Z,0.60
2023-01-11T11:39:18.269Z,0.90
2023-01-11T11:42:21.318Z,0.70
2023-01-11T11:45:23.212Z,0.80
2023-01-11T11:48:27.442Z,0.70
2023-01-11T12:03:28.550Z,0.73
2023-01-11T12:06:30.893Z,0.70
2023-01-11T12:09:34.794Z,0.73
2023-01-11T12:12:57.127Z,0.80
2023-01-11T12:16:05.469Z,0.80
2023-01-11T12:19:41.211Z,0.70
2023-01-11T12:22:43.057Z,0.90
2023-01-11T12:25:59.598Z,0.95
2023-01-11T12:29:23.226Z,0.60
2023-01-11T12:32:47.002Z,0.90
2023-01-11T12:35:51.904Z,0.73
2023-01-11T12:39:06.088Z,0.60
2023-01-11T12:42:42.489Z,1.00
2023-01-11T12:45:55.207Z,0.90
2023-01-11T12:49:26.145Z,1.40
2023-01-11T12:52:43.389Z,1.20
2023-01-11T12:56:05.793Z,1.52
2023-01-11T12:59:13.687Z,1.45
2023-01-11T13:02:41.638Z,1.48
2023-01-11T13:06:06.765Z,1.15
2023-01-11T13:09:26.864Z,1.73
2023-01-11T13:13:10.541Z,1.20
2023-01-11T13:16:15.515Z,0.98
2023-01-11T13:19:36.128Z,1.30
2023-01-11T13:22:43.779Z,0.90
2023-01-11T13:25:49.019Z,1.20
2023-01-11T13:29:13.458Z,1.90
2023-01-11T13:32:19.852Z,1.90
2023-01-11T13:35:55.996Z,3.08
2023-01-11T13:39:16.139Z,2.45
2023-01-11T13:42:26.639Z,1.92
2023-01-11T13:45:36.982Z,0.68
2023-01-11T13:48:44.360Z,1.10
2023-01-11T13:52:14.745Z,0.85
2023-01-11T13:55:34.980Z,0.95
2023-01-11T13:58:55.368Z,0.95
2023-01-11T14:01:59.676Z,0.95
2023-01-11T14:05:17.170Z,1.15
2023-01-11T14:08:48.833Z,1.45
2023-01-11T14:11:59.973Z,1.60
2023-01-11T14:15:17.024Z,1.13
2023-01-11T14:18:18.876Z,1.20
2023-01-11T14:21:47.137Z,1.38
2023-01-11T14:25:01.813Z,1.42
2023-01-11T14:32:04.360Z,1.33
2023-01-11T14:35:21.490Z,1.40
2023-01-11T14:38:50.385Z,1.13
2023-01-11T14:42:07.011Z,1.30
2023-01-11T14:45:37.570Z,1.30
2023-01-11T14:49:13.984Z,1.20
2023-01-11T14:52:38.525Z,1.13
2023-01-11T14:55:43.574Z,1.58
2023-01-11T14:59:02.365Z,1.20
2023-01-11T15:02:04.515Z,1.45
2023-01-11T15:05:10.514Z,1.40
2023-01-11T15:08:15.484Z,1.50
2023-01-11T15:11:40.577Z,1.73
2023-01-11T15:14:53.257Z,3.90
2023-01-11T15:17:57.169Z,2.30
2023-01-11T15:21:05.053Z,1.95
2023-01-11T15:24:29.824Z,1.40
2023-01-11T15:27:37.202Z,1.40
2023-01-11T15:30:39.257Z,1.95
2023-01-11T15:33:54.501Z,1.73
2023-01-11T15:37:02.433Z,2.65
2023-01-11T15:40:15.980Z,2.47
2023-01-11T15:43:44.977Z,2.55
2023-01-11T15:47:09.233Z,2.38
2023-01-11T15:50:29.866Z,2.17
2023-01-11T15:54:05.935Z,2.35
2023-01-11T15:57:17.250Z,2.83
2023-01-11T16:00:37.399Z,1.77
2023-01-11T16:07:26.549Z,1.42
2023-01-11T16:13:35.884Z,1.95
2023-01-11T16:16:43.672Z,2.22
2023-01-11T16:19:45.734Z,2.40
2023-01-11T16:22:53.845Z,2.35
2023-01-11T16:25:58.679Z,1.88
2023-01-11T16:29:07.742Z,2.13
2023-01-11T16:32:27.967Z,2.97
2023-01-11T16:35:29.846Z,1.08
2023-01-11T16:38:37.685Z,2.00
2023-01-11T16:42:05.478Z,2.38
2023-01-11T16:45:15.416Z,2.13
2023-01-11T16:48:22.527Z,1.85
2023-01-11T16:51:24.408Z,2.00
2023-01-11T16:57:43.704Z,1.25
2023-01-11T17:00:57.825Z,1.75
2023-01-11T17:07:24.113Z,1.70
2023-01-11T17:10:29.054Z,1.70
2023-01-11T17:14:06.276Z,1.88
2023-01-11T17:17:10.780Z,1.55
2023-01-11T17:20:25.713Z,1.80
2023-01-11T17:23:27.701Z,1.45
2023-01-11T17:26:38.163Z,1.90
2023-01-11T17:29:43.210Z,1.77
2023-01-11T17:32:47.822Z,3.80
2023-01-11T17:35:49.988Z,2.90
2023-01-11T17:38:54.298Z,2.78
2023-01-11T17:41:59.282Z,2.25
2023-01-11T17:45:03.822Z,1.60
2023-01-11T17:48:15.888Z,2.17
2023-01-11T17:51:34.675Z,2.00
2023-01-11T17:54:39.482Z,2.40
2023-01-11T17:58:13.347Z,2.00
2023-01-11T18:01:24.022Z,1.40
2023-01-11T18:04:27.345Z,1.35
2023-01-11T18:07:29.897Z,1.23
2023-01-11T18:10:36.344Z,1.50
2023-01-11T18:13:38.278Z,1.70
2023-01-11T18:17:05.598Z,2.40
2023-01-11T18:20:10.769Z,2.25
2023-01-11T18:23:12.677Z,1.90
2023-01-11T18:26:28.909Z,1.70
2023-01-11T18:29:36.640Z,2.20
2023-01-11T18:32:42.220Z,1.85
2023-01-11T18:35:46.776Z,1.88
2023-01-11T18:38:49.325Z,1.83
2023-01-11T18:41:51.462Z,1.60
2023-01-11T18:44:53.342Z,1.50
2023-01-11T18:47:55.216Z,1.88
2023-01-11T18:50:57.725Z,2.05
2023-01-11T18:53:59.612Z,2.55
2023-01-11T18:57:01.474Z,2.10
2023-01-11T19:00:04.006Z,1.67
2023-01-11T19:03:07.294Z,1.42
2023-01-11T19:06:12.479Z,1.60
2023-01-11T19:09:20.755Z,1.95
2023-01-11T19:12:28.771Z,2.28
2023-01-11T19:15:30.719Z,1.60
2023-01-11T19:18:35.092Z,1.67
2023-01-11T19:21:37.367Z,1.85
2023-01-11T19:24:39.999Z,1.50
2023-01-11T19:27:41.923Z,1.60
2023-01-11T19:30:43.771Z,1.80
2023-01-11T19:33:46.442Z,1.17
2023-01-11T19:36:49.846Z,1.95
2023-01-11T19:39:51.707Z,1.92
2023-01-11T19:42:53.570Z,1.70
2023-01-11T19:45:59.244Z,1.73
2023-01-11T19:49:01.147Z,1.55
2023-01-11T19:55:10.056Z,2.13
2023-01-11T19:58:12.144Z,1.83
2023-01-11T20:01:17.481Z,1.92
2023-01-11T20:04:19.418Z,1.50
2023-01-11T20:07:21.398Z,1.70
2023-01-11T20:10:23.267Z,1.80
2023-01-11T20:13:25.154Z,1.50
2023-01-11T20:16:26.980Z,1.90
2023-01-11T20:19:34.891Z,1.40
2023-01-11T20:22:36.757Z,1.92
2023-01-11T20:25:40.779Z,1.80
2023-01-11T20:28:49.168Z,2.47
2023-01-11T20:31:51.035Z,2.63
2023-01-11T20:34:52.917Z,1.83
2023-01-11T20:37:55.099Z,2.13
2023-01-11T20:40:57.085Z,1.65
2023-01-11T20:43:59.395Z,2.20
2023-01-11T20:47:01.225Z,2.17
2023-01-11T20:50:05.640Z,2.05
2023-01-11T20:53:07.506Z,1.52
2023-01-11T20:56:09.866Z,2.05
2023-01-11T20:59:14.771Z,1.77
2023-01-11T21:02:16.651Z,2.05
2023-01-11T21:05:18.699Z,1.63
2023-01-11T21:08:20.616Z,1.67
2023-01-11T21:11:22.864Z,1.63
2023-01-11T21:14:24.714Z,1.90
2023-01-11T21:17:26.599Z,1.80
2023-01-11T21:20:28.452Z,1.58
2023-01-11T21:23:30.457Z,2.33
2023-01-11T21:26:33.007Z,1.40
2023-01-11T21:29:36.278Z,1.63
2023-01-11T21:32:38.200Z,2.67
2023-01-11T21:35:40.056Z,1.83
2023-01-11T21:38:42.214Z,1.80
2023-01-11T21:41:44.510Z,1.73
2023-01-11T21:44:46.407Z,1.90
2023-01-11T21:47:48.251Z,1.67
2023-01-11T21:50:50.297Z,1.83
2023-01-11T21:53:52.284Z,2.05
2023-01-11T21:56:54.215Z,1.70
2023-01-11T21:59:56.056Z,2.33
2023-01-11T22:02:58.052Z,1.83
2023-01-11T22:06:01.447Z,1.55
2023-01-11T22:09:05.653Z,1.48
2023-01-11T22:12:08.463Z,1.48
2023-01-11T22:15:11.027Z,2.05
2023-01-11T22:18:14.563Z,1.40
2023-01-11T22:21:18.328Z,1.55
2023-01-11T22:24:20.179Z,1.67
2023-01-11T22:27:22.028Z,1.35
2023-01-11T22:30:24.151Z,1.77
2023-01-11T22:33:25.994Z,1.08
2023-01-11T22:36:28.956Z,1.80
2023-01-11T22:39:30.833Z,2.00
2023-01-11T22:42:32.791Z,1.40
2023-01-11T22:45:34.750Z,1.25
2023-01-11T22:48:36.611Z,1.35
2023-01-11T22:51:39.517Z,1.10
2023-01-11T22:54:41.392Z,1.85
2023-01-11T22:57:43.345Z,1.23
2023-01-11T23:00:45.201Z,1.75
2023-01-11T23:03:47.506Z,0.93
2023-01-11T23:06:49.340Z,1.33
2023-01-11T23:09:51.193Z,1.35
2023-01-11T23:12:53.073Z,1.50
2023-01-11T23:15:56.518Z,1.30
2023-01-11T23:18:58.501Z,1.70
2023-01-11T23:22:00.482Z,1.13
2023-01-11T23:25:02.280Z,1.25
2023-01-11T23:28:04.324Z,1.15
2023-01-11T23:31:17.817Z,1.08
2023-01-11T23:34:19.959Z,1.38
2023-01-11T23:37:21.821Z,1.02
2023-01-11T23:40:23.696Z,1.23
2023-01-11T23:43:25.712Z,2.38
2023-01-11T23:46:28.204Z,1.02
2023-01-11T23:49:31.539Z,1.67
2023-01-11T23:52:33.419Z,1.10
2023-01-11T23:55:35.319Z,1.45
2023-01-11T23:58:37.203Z,1.20
